sensor_id;sensor_type;location;lat;lon;timestamp;temperature;humidity
4279;DHT22;2153;47.744;10.580;2022-09-09T00:00:13;13.00;99.90
4279;DHT22;2153;47.744;10.580;2022-09-09T00:02:43;13.00;99.90
4279;DHT22;2153;47.744;10.580;2022-09-09T00:05:19;13.00;99.90
4279;DHT22;2153;47.744;10.580;2022-09-09T00:07:55;13.10;99.90
4279;DHT22;2153;47.744;10.580;2022-09-09T00:10:28;13.10;99.90
4279;DHT22;2153;47.744;10.580;2022-09-09T00:13:04;13.10;99.90
4279;DHT22;2153;47.744;10.580;2022-09-09T00:15:35;13.10;99.90
4279;DHT22;2153;47.744;10.580;2022-09-09T00:18:16;13.10;99.90
4279;DHT22;2153;47.744;10.580;2022-09-09T00:20:49;13.10;99.90
4279;DHT22;2153;47.744;10.580;2022-09-09T00:23:25;13.10;99.90
4279;DHT22;2153;47.744;10.580;2022-09-09T00:25:59;13.00;99.90
4279;DHT22;2153;47.744;10.580;2022-09-09T00:28:28;13.00;99.90
4279;DHT22;2153;47.744;10.580;2022-09-09T00:31:00;13.00;99.90
4279;DHT22;2153;47.744;10.580;2022-09-09T00:33:30;12.90;99.90
4279;DHT22;2153;47.744;10.580;2022-09-09T00:35:58;12.90;99.90
4279;DHT22;2153;47.744;10.580;2022-09-09T00:38:32;13.00;99.90
4279;DHT22;2153;47.744;10.580;2022-09-09T00:41:03;13.00;99.90
4279;DHT22;2153;47.744;10.580;2022-09-09T00:43:36;13.00;99.90
4279;DHT22;2153;47.744;10.580;2022-09-09T00:46:30;13.00;99.90
4279;DHT22;2153;47.744;10.580;2022-09-09T00:49:04;13.00;99.90
4279;DHT22;2153;47.744;10.580;2022-09-09T00:51:45;12.90;99.90
4279;DHT22;2153;47.744;10.580;2022-09-09T00:54:28;12.90;99.90
4279;DHT22;2153;47.744;10.580;2022-09-09T00:57:06;12.90;99.90
4279;DHT22;2153;47.744;10.580;2022-09-09T00:59:46;12.90;99.90
4279;DHT22;2153;47.744;10.580;2022-09-09T01:02:18;12.90;99.90
4279;DHT22;2153;47.744;10.580;2022-09-09T01:04:48;13.00;99.90
4279;DHT22;2153;47.744;10.580;2022-09-09T01:07:17;12.90;99.90
4279;DHT22;2153;47.744;10.580;2022-09-09T01:10:05;12.90;99.90
4279;DHT22;2153;47.744;10.580;2022-09-09T01:12:39;12.90;99.90
4279;DHT22;2153;47.744;10.580;2022-09-09T01:15:12;12.90;99.90
4279;DHT22;2153;47.744;10.580;2022-09-09T01:17:51;12.90;99.90
4279;DHT22;2153;47.744;10.580;2022-09-09T01:20:22;12.80;99.90
4279;DHT22;2153;47.744;10.580;2022-09-09T01:23:00;12.70;99.90
4279;DHT22;2153;47.744;10.580;2022-09-09T01:26:11;12.60;99.90
4279;DHT22;2153;47.744;10.580;2022-09-09T01:28:40;12.50;99.90
4279;DHT22;2153;47.744;10.580;2022-09-09T01:31:11;12.50;99.90
4279;DHT22;2153;47.744;10.580;2022-09-09T01:33:40;12.40;99.90
4279;DHT22;2153;47.744;10.580;2022-09-09T01:36:09;12.40;99.90
4279;DHT22;2153;47.744;10.580;2022-09-09T01:38:37;12.40;99.90
4279;DHT22;2153;47.744;10.580;2022-09-09T01:41:04;12.40;99.90
4279;DHT22;2153;47.744;10.580;2022-09-09T01:43:32;12.40;99.90
4279;DHT22;2153;47.744;10.580;2022-09-09T01:46:01;12.40;99.90
4279;DHT22;2153;47.744;10.580;2022-09-09T01:48:28;12.30;99.90
4279;DHT22;2153;47.744;10.580;2022-09-09T01:50:56;12.30;99.90
4279;DHT22;2153;47.744;10.580;2022-09-09T01:53:23;12.30;99.90
4279;DHT22;2153;47.744;10.580;2022-09-09T01:55:59;12.20;99.90
4279;DHT22;2153;47.744;10.580;2022-09-09T01:58:34;12.20;99.90
4279;DHT22;2153;47.744;10.580;2022-09-09T02:01:09;12.30;99.90
4279;DHT22;2153;47.744;10.580;2022-09-09T02:03:38;12.30;99.90
4279;DHT22;2153;47.744;10.580;2022-09-09T02:06:14;12.30;99.90
4279;DHT22;2153;47.744;10.580;2022-09-09T02:08:48;12.30;99.90
4279;DHT22;2153;47.744;10.580;2022-09-09T02:11:17;12.30;99.90
4279;DHT22;2153;47.744;10.580;2022-09-09T02:13:46;12.30;99.90
4279;DHT22;2153;47.744;10.580;2022-09-09T02:16:18;12.30;99.90
4279;DHT22;2153;47.744;10.580;2022-09-09T02:18:50;12.40;99.90
4279;DHT22;2153;47.744;10.580;2022-09-09T02:21:18;12.40;99.90
4279;DHT22;2153;47.744;10.580;2022-09-09T02:23:47;12.40;99.90
4279;DHT22;2153;47.744;10.580;2022-09-09T02:26:17;12.40;99.90
4279;DHT22;2153;47.744;10.580;2022-09-09T02:31:19;12.40;99.90
4279;DHT22;2153;47.744;10.580;2022-09-09T02:33:52;12.50;99.90
4279;DHT22;2153;47.744;10.580;2022-09-09T02:36:22;12.40;99.90
4279;DHT22;2153;47.744;10.580;2022-09-09T02:38:51;12.40;99.90
4279;DHT22;2153;47.744;10.580;2022-09-09T02:41:23;12.50;99.90
4279;DHT22;2153;47.744;10.580;2022-09-09T02:43:52;12.50;99.90
4279;DHT22;2153;47.744;10.580;2022-09-09T02:46:28;12.50;99.90
4279;DHT22;2153;47.744;10.580;2022-09-09T02:49:00;12.50;99.90
4279;DHT22;2153;47.744;10.580;2022-09-09T02:51:35;12.40;99.90
4279;DHT22;2153;47.744;10.580;2022-09-09T02:54:10;12.50;99.90
4279;DHT22;2153;47.744;10.580;2022-09-09T02:56:46;12.40;99.90
4279;DHT22;2153;47.744;10.580;2022-09-09T02:59:16;12.30;99.90
4279;DHT22;2153;47.744;10.580;2022-09-09T03:01:43;12.30;99.90
4279;DHT22;2153;47.744;10.580;2022-09-09T03:04:10;12.30;99.90
4279;DHT22;2153;47.744;10.580;2022-09-09T03:06:37;12.20;99.90
4279;DHT22;2153;47.744;10.580;2022-09-09T03:09:04;12.20;99.90
4279;DHT22;2153;47.744;10.580;2022-09-09T03:11:31;12.20;99.90
4279;DHT22;2153;47.744;10.580;2022-09-09T03:13:58;12.20;99.90
4279;DHT22;2153;47.744;10.580;2022-09-09T03:16:26;12.10;99.90
4279;DHT22;2153;47.744;10.580;2022-09-09T03:18:53;12.10;99.90
4279;DHT22;2153;47.744;10.580;2022-09-09T03:21:19;12.10;99.90
4279;DHT22;2153;47.744;10.580;2022-09-09T03:23:46;12.10;99.90
4279;DHT22;2153;47.744;10.580;2022-09-09T03:26:13;12.10;99.90
4279;DHT22;2153;47.744;10.580;2022-09-09T03:28:41;12.10;99.90
4279;DHT22;2153;47.744;10.580;2022-09-09T03:31:08;12.10;99.90
4279;DHT22;2153;47.744;10.580;2022-09-09T03:33:37;12.10;99.90
4279;DHT22;2153;47.744;10.580;2022-09-09T03:36:05;12.10;99.90
4279;DHT22;2153;47.744;10.580;2022-09-09T03:38:32;12.00;99.90
4279;DHT22;2153;47.744;10.580;2022-09-09T03:41:00;12.00;99.90
4279;DHT22;2153;47.744;10.580;2022-09-09T03:43:28;12.00;99.90
4279;DHT22;2153;47.744;10.580;2022-09-09T03:45:55;12.00;99.90
4279;DHT22;2153;47.744;10.580;2022-09-09T03:48:22;11.90;99.90
4279;DHT22;2153;47.744;10.580;2022-09-09T03:50:52;11.90;99.90
4279;DHT22;2153;47.744;10.580;2022-09-09T03:53:21;11.80;99.90
4279;DHT22;2153;47.744;10.580;2022-09-09T03:55:49;11.80;99.90
4279;DHT22;2153;47.744;10.580;2022-09-09T03:58:18;11.80;99.90
4279;DHT22;2153;47.744;10.580;2022-09-09T04:00:53;11.80;99.90
4279;DHT22;2153;47.744;10.580;2022-09-09T04:03:20;11.80;99.90
4279;DHT22;2153;47.744;10.580;2022-09-09T04:05:50;11.90;99.90
4279;DHT22;2153;47.744;10.580;2022-09-09T04:08:17;11.90;99.90
4279;DHT22;2153;47.744;10.580;2022-09-09T04:10:44;11.90;99.90
4279;DHT22;2153;47.744;10.580;2022-09-09T04:13:12;11.90;99.90
4279;DHT22;2153;47.744;10.580;2022-09-09T04:15:41;11.80;99.90
4279;DHT22;2153;47.744;10.580;2022-09-09T04:18:09;11.70;99.90
4279;DHT22;2153;47.744;10.580;2022-09-09T04:20:36;11.70;99.90
4279;DHT22;2153;47.744;10.580;2022-09-09T04:23:04;11.60;99.90
4279;DHT22;2153;47.744;10.580;2022-09-09T04:25:31;11.60;99.90
4279;DHT22;2153;47.744;10.580;2022-09-09T04:27:59;11.70;99.90
4279;DHT22;2153;47.744;10.580;2022-09-09T04:30:26;11.70;99.90
4279;DHT22;2153;47.744;10.580;2022-09-09T04:32:53;11.80;99.90
4279;DHT22;2153;47.744;10.580;2022-09-09T04:35:20;11.80;99.90
4279;DHT22;2153;47.744;10.580;2022-09-09T04:37:47;11.90;99.90
4279;DHT22;2153;47.744;10.580;2022-09-09T04:40:15;11.90;99.90
4279;DHT22;2153;47.744;10.580;2022-09-09T04:42:42;11.80;99.90
4279;DHT22;2153;47.744;10.580;2022-09-09T04:45:10;11.80;99.90
4279;DHT22;2153;47.744;10.580;2022-09-09T04:47:38;11.90;99.90
4279;DHT22;2153;47.744;10.580;2022-09-09T04:50:06;11.90;99.90
4279;DHT22;2153;47.744;10.580;2022-09-09T04:52:34;12.00;99.90
4279;DHT22;2153;47.744;10.580;2022-09-09T04:55:00;12.00;99.90
4279;DHT22;2153;47.744;10.580;2022-09-09T04:57:28;12.00;99.90
4279;DHT22;2153;47.744;10.580;2022-09-09T04:59:58;12.10;99.90
4279;DHT22;2153;47.744;10.580;2022-09-09T05:02:25;12.20;99.90
4279;DHT22;2153;47.744;10.580;2022-09-09T05:04:52;12.20;99.90
4279;DHT22;2153;47.744;10.580;2022-09-09T05:07:19;12.20;99.90
4279;DHT22;2153;47.744;10.580;2022-09-09T05:09:46;12.10;99.90
4279;DHT22;2153;47.744;10.580;2022-09-09T05:12:14;12.10;99.90
4279;DHT22;2153;47.744;10.580;2022-09-09T05:14:43;12.00;99.90
4279;DHT22;2153;47.744;10.580;2022-09-09T05:17:10;12.00;99.90
4279;DHT22;2153;47.744;10.580;2022-09-09T05:19:38;12.10;99.90
4279;DHT22;2153;47.744;10.580;2022-09-09T05:22:04;12.10;99.90
4279;DHT22;2153;47.744;10.580;2022-09-09T05:24:31;12.10;99.90
4279;DHT22;2153;47.744;10.580;2022-09-09T05:26:58;12.10;99.90
4279;DHT22;2153;47.744;10.580;2022-09-09T05:29:27;12.20;99.90
4279;DHT22;2153;47.744;10.580;2022-09-09T05:31:56;12.20;99.90
4279;DHT22;2153;47.744;10.580;2022-09-09T05:34:22;12.30;99.90
4279;DHT22;2153;47.744;10.580;2022-09-09T05:36:49;12.30;99.90
4279;DHT22;2153;47.744;10.580;2022-09-09T05:39:16;12.40;99.90
4279;DHT22;2153;47.744;10.580;2022-09-09T05:41:43;12.40;99.90
4279;DHT22;2153;47.744;10.580;2022-09-09T05:44:10;12.50;99.90
4279;DHT22;2153;47.744;10.580;2022-09-09T05:46:36;12.50;99.90
4279;DHT22;2153;47.744;10.580;2022-09-09T05:49:04;12.60;99.90
4279;DHT22;2153;47.744;10.580;2022-09-09T05:51:32;12.70;99.90
4279;DHT22;2153;47.744;10.580;2022-09-09T05:53:58;12.80;99.90
4279;DHT22;2153;47.744;10.580;2022-09-09T05:56:26;12.90;99.90
4279;DHT22;2153;47.744;10.580;2022-09-09T05:58:54;13.00;99.90
4279;DHT22;2153;47.744;10.580;2022-09-09T06:01:22;13.10;99.90
4279;DHT22;2153;47.744;10.580;2022-09-09T06:03:50;13.20;99.90
4279;DHT22;2153;47.744;10.580;2022-09-09T06:06:20;13.20;99.90
4279;DHT22;2153;47.744;10.580;2022-09-09T06:08:48;13.20;99.90
4279;DHT22;2153;47.744;10.580;2022-09-09T06:11:18;13.20;99.90
4279;DHT22;2153;47.744;10.580;2022-09-09T06:13:45;13.20;99.90
4279;DHT22;2153;47.744;10.580;2022-09-09T06:16:15;13.30;99.90
4279;DHT22;2153;47.744;10.580;2022-09-09T06:18:42;13.30;99.90
4279;DHT22;2153;47.744;10.580;2022-09-09T06:21:14;13.40;99.90
4279;DHT22;2153;47.744;10.580;2022-09-09T06:23:43;13.60;99.90
4279;DHT22;2153;47.744;10.580;2022-09-09T06:26:12;13.70;99.90
4279;DHT22;2153;47.744;10.580;2022-09-09T06:28:40;13.80;99.90
4279;DHT22;2153;47.744;10.580;2022-09-09T06:31:10;13.90;99.90
4279;DHT22;2153;47.744;10.580;2022-09-09T06:33:39;14.00;99.90
4279;DHT22;2153;47.744;10.580;2022-09-09T06:36:07;14.10;99.90
4279;DHT22;2153;47.744;10.580;2022-09-09T06:38:36;14.10;99.90
4279;DHT22;2153;47.744;10.580;2022-09-09T06:41:04;14.20;99.90
4279;DHT22;2153;47.744;10.580;2022-09-09T06:43:32;14.20;99.90
4279;DHT22;2153;47.744;10.580;2022-09-09T06:46:03;14.20;99.90
4279;DHT22;2153;47.744;10.580;2022-09-09T06:48:30;14.30;99.90
4279;DHT22;2153;47.744;10.580;2022-09-09T06:51:02;14.30;99.90
4279;DHT22;2153;47.744;10.580;2022-09-09T06:53:29;14.30;99.90
4279;DHT22;2153;47.744;10.580;2022-09-09T06:55:59;14.30;99.90
4279;DHT22;2153;47.744;10.580;2022-09-09T06:58:28;14.30;99.90
4279;DHT22;2153;47.744;10.580;2022-09-09T07:01:02;14.30;99.90
4279;DHT22;2153;47.744;10.580;2022-09-09T07:03:29;14.30;99.90
4279;DHT22;2153;47.744;10.580;2022-09-09T07:05:56;14.40;99.90
4279;DHT22;2153;47.744;10.580;2022-09-09T07:08:23;14.40;99.90
4279;DHT22;2153;47.744;10.580;2022-09-09T07:10:50;14.40;99.90
4279;DHT22;2153;47.744;10.580;2022-09-09T07:13:19;14.40;99.90
4279;DHT22;2153;47.744;10.580;2022-09-09T07:15:51;14.50;99.90
4279;DHT22;2153;47.744;10.580;2022-09-09T07:18:18;14.50;99.90
4279;DHT22;2153;47.744;10.580;2022-09-09T07:20:52;14.60;99.90
4279;DHT22;2153;47.744;10.580;2022-09-09T07:23:19;14.60;99.90
4279;DHT22;2153;47.744;10.580;2022-09-09T07:25:46;14.70;99.90
4279;DHT22;2153;47.744;10.580;2022-09-09T07:28:13;14.80;99.90
4279;DHT22;2153;47.744;10.580;2022-09-09T07:30:40;14.80;99.90
4279;DHT22;2153;47.744;10.580;2022-09-09T07:33:09;14.90;99.90
4279;DHT22;2153;47.744;10.580;2022-09-09T07:35:36;15.00;99.90
4279;DHT22;2153;47.744;10.580;2022-09-09T07:38:03;15.10;99.90
4279;DHT22;2153;47.744;10.580;2022-09-09T07:40:32;15.20;99.90
4279;DHT22;2153;47.744;10.580;2022-09-09T07:42:59;15.40;99.90
4279;DHT22;2153;47.744;10.580;2022-09-09T07:45:26;15.40;99.90
4279;DHT22;2153;47.744;10.580;2022-09-09T07:47:53;15.50;99.90
4279;DHT22;2153;47.744;10.580;2022-09-09T07:50:23;15.50;99.90
4279;DHT22;2153;47.744;10.580;2022-09-09T07:52:50;15.50;99.90
4279;DHT22;2153;47.744;10.580;2022-09-09T07:55:17;15.60;99.90
4279;DHT22;2153;47.744;10.580;2022-09-09T07:57:45;15.70;99.90
4279;DHT22;2153;47.744;10.580;2022-09-09T08:00:13;15.80;99.90
4279;DHT22;2153;47.744;10.580;2022-09-09T08:02:40;15.90;99.90
4279;DHT22;2153;47.744;10.580;2022-09-09T08:05:07;16.00;99.90
4279;DHT22;2153;47.744;10.580;2022-09-09T08:07:35;16.10;99.90
4279;DHT22;2153;47.744;10.580;2022-09-09T08:10:02;16.10;99.90
4279;DHT22;2153;47.744;10.580;2022-09-09T08:12:29;16.10;99.90
4279;DHT22;2153;47.744;10.580;2022-09-09T08:14:56;16.20;99.90
4279;DHT22;2153;47.744;10.580;2022-09-09T08:17:23;16.20;99.90
4279;DHT22;2153;47.744;10.580;2022-09-09T08:19:49;16.30;99.90
4279;DHT22;2153;47.744;10.580;2022-09-09T08:22:16;16.40;99.90
4279;DHT22;2153;47.744;10.580;2022-09-09T08:24:44;16.40;99.90
4279;DHT22;2153;47.744;10.580;2022-09-09T08:27:12;16.50;99.90
4279;DHT22;2153;47.744;10.580;2022-09-09T08:29:39;16.50;99.90
4279;DHT22;2153;47.744;10.580;2022-09-09T08:32:06;16.50;99.90
4279;DHT22;2153;47.744;10.580;2022-09-09T08:34:33;16.40;99.90
4279;DHT22;2153;47.744;10.580;2022-09-09T08:37:01;16.40;99.90
4279;DHT22;2153;47.744;10.580;2022-09-09T08:39:27;16.40;99.90
4279;DHT22;2153;47.744;10.580;2022-09-09T08:45:02;16.20;99.90
4279;DHT22;2153;47.744;10.580;2022-09-09T08:47:37;16.20;99.90
4279;DHT22;2153;47.744;10.580;2022-09-09T08:50:19;16.20;99.90
4279;DHT22;2153;47.744;10.580;2022-09-09T08:52:52;16.20;99.90
4279;DHT22;2153;47.744;10.580;2022-09-09T08:55:25;16.20;99.90
4279;DHT22;2153;47.744;10.580;2022-09-09T08:57:56;16.20;99.90
4279;DHT22;2153;47.744;10.580;2022-09-09T09:00:31;16.10;99.90
4279;DHT22;2153;47.744;10.580;2022-09-09T09:03:07;16.10;99.90
4279;DHT22;2153;47.744;10.580;2022-09-09T09:05:37;16.00;99.90
4279;DHT22;2153;47.744;10.580;2022-09-09T09:08:12;16.00;99.90
4279;DHT22;2153;47.744;10.580;2022-09-09T09:10:46;16.00;99.90
4279;DHT22;2153;47.744;10.580;2022-09-09T09:13:18;16.00;99.90
4279;DHT22;2153;47.744;10.580;2022-09-09T09:15:50;16.00;99.90
4279;DHT22;2153;47.744;10.580;2022-09-09T09:18:18;16.00;99.90
4279;DHT22;2153;47.744;10.580;2022-09-09T09:20:50;16.10;99.90
4279;DHT22;2153;47.744;10.580;2022-09-09T09:23:22;16.10;99.90
4279;DHT22;2153;47.744;10.580;2022-09-09T09:25:52;16.20;99.90
4279;DHT22;2153;47.744;10.580;2022-09-09T09:28:25;16.20;99.90
4279;DHT22;2153;47.744;10.580;2022-09-09T09:30:56;16.30;99.90
4279;DHT22;2153;47.744;10.580;2022-09-09T09:33:27;16.40;99.90
4279;DHT22;2153;47.744;10.580;2022-09-09T09:35:54;16.40;99.90
4279;DHT22;2153;47.744;10.580;2022-09-09T09:38:23;16.40;99.90
4279;DHT22;2153;47.744;10.580;2022-09-09T09:40:51;16.40;99.90
4279;DHT22;2153;47.744;10.580;2022-09-09T09:43:24;16.30;99.90
4279;DHT22;2153;47.744;10.580;2022-09-09T09:45:51;16.30;99.90
4279;DHT22;2153;47.744;10.580;2022-09-09T09:48:17;16.20;99.90
4279;DHT22;2153;47.744;10.580;2022-09-09T09:50:49;16.10;99.90
4279;DHT22;2153;47.744;10.580;2022-09-09T09:53:20;16.00;99.90
4279;DHT22;2153;47.744;10.580;2022-09-09T09:55:53;15.90;99.90
4279;DHT22;2153;47.744;10.580;2022-09-09T09:58:21;15.80;99.90
4279;DHT22;2153;47.744;10.580;2022-09-09T10:00:50;15.70;99.90
4279;DHT22;2153;47.744;10.580;2022-09-09T10:03:22;15.60;99.90
4279;DHT22;2153;47.744;10.580;2022-09-09T10:05:50;15.50;99.90
4279;DHT22;2153;47.744;10.580;2022-09-09T10:08:17;15.50;99.90
4279;DHT22;2153;47.744;10.580;2022-09-09T10:11:10;15.50;99.90
4279;DHT22;2153;47.744;10.580;2022-09-09T10:13:46;15.50;99.90
4279;DHT22;2153;47.744;10.580;2022-09-09T10:16:30;15.50;99.90
4279;DHT22;2153;47.744;10.580;2022-09-09T10:19:04;15.60;99.90
4279;DHT22;2153;47.744;10.580;2022-09-09T10:21:56;15.70;99.90
4279;DHT22;2153;47.744;10.580;2022-09-09T10:27:38;16.00;99.90
4279;DHT22;2153;47.744;10.580;2022-09-09T10:30:12;16.10;99.90
4279;DHT22;2153;47.744;10.580;2022-09-09T10:32:46;16.10;99.90
4279;DHT22;2153;47.744;10.580;2022-09-09T10:35:31;16.20;99.90
4279;DHT22;2153;47.744;10.580;2022-09-09T10:38:16;16.20;99.90
4279;DHT22;2153;47.744;10.580;2022-09-09T10:41:01;16.30;99.90
4279;DHT22;2153;47.744;10.580;2022-09-09T10:44:01;16.30;99.90
4279;DHT22;2153;47.744;10.580;2022-09-09T10:46:45;16.30;99.90
4279;DHT22;2153;47.744;10.580;2022-09-09T10:49:28;16.30;99.90
4279;DHT22;2153;47.744;10.580;2022-09-09T10:52:05;16.30;99.90
4279;DHT22;2153;47.744;10.580;2022-09-09T10:54:44;16.40;99.90
4279;DHT22;2153;47.744;10.580;2022-09-09T10:57:28;16.50;99.90
4279;DHT22;2153;47.744;10.580;2022-09-09T11:00:00;16.60;99.90
4279;DHT22;2153;47.744;10.580;2022-09-09T11:02:31;16.70;99.90
4279;DHT22;2153;47.744;10.580;2022-09-09T11:05:03;16.80;99.90
4279;DHT22;2153;47.744;10.580;2022-09-09T11:07:37;16.90;99.90
4279;DHT22;2153;47.744;10.580;2022-09-09T11:10:16;16.90;99.90
4279;DHT22;2153;47.744;10.580;2022-09-09T11:12:45;16.80;99.90
4279;DHT22;2153;47.744;10.580;2022-09-09T11:15:17;16.70;99.90
4279;DHT22;2153;47.744;10.580;2022-09-09T11:17:48;16.70;99.90
4279;DHT22;2153;47.744;10.580;2022-09-09T11:20:18;16.70;99.90
4279;DHT22;2153;47.744;10.580;2022-09-09T11:22:49;16.70;99.90
4279;DHT22;2153;47.744;10.580;2022-09-09T11:25:20;16.70;99.90
4279;DHT22;2153;47.744;10.580;2022-09-09T11:28:05;16.70;99.90
4279;DHT22;2153;47.744;10.580;2022-09-09T11:30:45;16.80;99.90
4279;DHT22;2153;47.744;10.580;2022-09-09T11:33:37;16.90;99.90
4279;DHT22;2153;47.744;10.580;2022-09-09T11:39:22;17.00;99.90
4279;DHT22;2153;47.744;10.580;2022-09-09T11:41:53;17.30;99.90
4279;DHT22;2153;47.744;10.580;2022-09-09T11:44:27;17.50;99.90
4279;DHT22;2153;47.744;10.580;2022-09-09T11:46:54;17.60;99.90
4279;DHT22;2153;47.744;10.580;2022-09-09T11:49:28;17.70;99.90
4279;DHT22;2153;47.744;10.580;2022-09-09T11:51:56;17.90;99.90
4279;DHT22;2153;47.744;10.580;2022-09-09T11:54:30;17.90;99.90
4279;DHT22;2153;47.744;10.580;2022-09-09T11:56:57;17.90;99.90
4279;DHT22;2153;47.744;10.580;2022-09-09T11:59:27;18.00;99.90
4279;DHT22;2153;47.744;10.580;2022-09-09T12:01:55;18.00;99.90
4279;DHT22;2153;47.744;10.580;2022-09-09T12:04:41;18.00;99.90
4279;DHT22;2153;47.744;10.580;2022-09-09T12:07:30;18.10;99.90
4279;DHT22;2153;47.744;10.580;2022-09-09T12:10:03;18.30;99.90
4279;DHT22;2153;47.744;10.580;2022-09-09T12:12:32;18.40;99.90
4279;DHT22;2153;47.744;10.580;2022-09-09T12:15:21;18.10;99.90
4279;DHT22;2153;47.744;10.580;2022-09-09T12:17:50;18.30;99.90
4279;DHT22;2153;47.744;10.580;2022-09-09T12:20:19;18.20;99.90
4279;DHT22;2153;47.744;10.580;2022-09-09T12:22:55;18.30;99.90
4279;DHT22;2153;47.744;10.580;2022-09-09T12:25:33;18.30;99.90
4279;DHT22;2153;47.744;10.580;2022-09-09T12:28:08;18.30;99.90
4279;DHT22;2153;47.744;10.580;2022-09-09T12:30:42;18.20;99.90
4279;DHT22;2153;47.744;10.580;2022-09-09T12:33:12;18.30;99.90
4279;DHT22;2153;47.744;10.580;2022-09-09T12:35:42;18.40;99.90
4279;DHT22;2153;47.744;10.580;2022-09-09T12:38:13;18.30;99.90
4279;DHT22;2153;47.744;10.580;2022-09-09T12:40:54;18.20;99.90
4279;DHT22;2153;47.744;10.580;2022-09-09T12:43:22;18.20;99.90
4279;DHT22;2153;47.744;10.580;2022-09-09T12:45:50;18.30;99.90
4279;DHT22;2153;47.744;10.580;2022-09-09T12:48:27;18.30;99.90
4279;DHT22;2153;47.744;10.580;2022-09-09T12:50:54;18.40;99.90
4279;DHT22;2153;47.744;10.580;2022-09-09T12:53:25;18.40;99.90
4279;DHT22;2153;47.744;10.580;2022-09-09T12:55:58;18.40;99.90
4279;DHT22;2153;47.744;10.580;2022-09-09T12:58:26;18.40;99.90
4279;DHT22;2153;47.744;10.580;2022-09-09T13:00:58;18.30;99.90
4279;DHT22;2153;47.744;10.580;2022-09-09T13:03:26;18.30;99.90
4279;DHT22;2153;47.744;10.580;2022-09-09T13:05:57;18.30;99.90
4279;DHT22;2153;47.744;10.580;2022-09-09T13:08:25;18.30;99.90
4279;DHT22;2153;47.744;10.580;2022-09-09T13:10:56;18.30;99.90
4279;DHT22;2153;47.744;10.580;2022-09-09T13:13:27;18.30;99.90
4279;DHT22;2153;47.744;10.580;2022-09-09T13:15:57;18.30;99.90
4279;DHT22;2153;47.744;10.580;2022-09-09T13:18:27;18.10;99.90
4279;DHT22;2153;47.744;10.580;2022-09-09T13:20:55;18.00;99.90
4279;DHT22;2153;47.744;10.580;2022-09-09T13:23:27;17.90;99.90
4279;DHT22;2153;47.744;10.580;2022-09-09T13:25:58;17.50;99.90
4279;DHT22;2153;47.744;10.580;2022-09-09T13:28:27;17.20;99.90
4279;DHT22;2153;47.744;10.580;2022-09-09T13:30:56;17.00;99.90
4279;DHT22;2153;47.744;10.580;2022-09-09T13:33:30;16.90;99.90
4279;DHT22;2153;47.744;10.580;2022-09-09T13:36:00;16.60;99.90
4279;DHT22;2153;47.744;10.580;2022-09-09T13:38:31;16.40;99.90
4279;DHT22;2153;47.744;10.580;2022-09-09T13:41:01;16.40;99.90
4279;DHT22;2153;47.744;10.580;2022-09-09T13:43:31;16.40;99.90
4279;DHT22;2153;47.744;10.580;2022-09-09T13:46:02;16.50;99.90
4279;DHT22;2153;47.744;10.580;2022-09-09T13:48:30;16.50;99.90
4279;DHT22;2153;47.744;10.580;2022-09-09T13:51:00;16.40;99.90
4279;DHT22;2153;47.744;10.580;2022-09-09T13:53:31;16.30;99.90
4279;DHT22;2153;47.744;10.580;2022-09-09T13:56:00;16.40;99.90
4279;DHT22;2153;47.744;10.580;2022-09-09T13:58:26;16.60;99.90
4279;DHT22;2153;47.744;10.580;2022-09-09T14:00:53;16.60;99.90
4279;DHT22;2153;47.744;10.580;2022-09-09T14:03:21;16.70;99.90
4279;DHT22;2153;47.744;10.580;2022-09-09T14:05:48;16.70;99.90
4279;DHT22;2153;47.744;10.580;2022-09-09T14:08:22;16.80;99.90
4279;DHT22;2153;47.744;10.580;2022-09-09T14:10:50;17.00;99.90
4279;DHT22;2153;47.744;10.580;2022-09-09T14:13:19;17.30;99.90
4279;DHT22;2153;47.744;10.580;2022-09-09T14:15:48;17.50;99.90
4279;DHT22;2153;47.744;10.580;2022-09-09T14:18:15;17.70;99.90
4279;DHT22;2153;47.744;10.580;2022-09-09T14:20:42;17.50;99.90
4279;DHT22;2153;47.744;10.580;2022-09-09T14:23:11;17.30;99.90
4279;DHT22;2153;47.744;10.580;2022-09-09T14:25:40;17.20;99.90
4279;DHT22;2153;47.744;10.580;2022-09-09T14:28:09;17.10;99.90
4279;DHT22;2153;47.744;10.580;2022-09-09T19:31:27;13.70;99.90
4279;DHT22;2153;47.744;10.580;2022-09-09T19:33:55;13.60;99.90
4279;DHT22;2153;47.744;10.580;2022-09-09T19:36:24;13.60;99.90
4279;DHT22;2153;47.744;10.580;2022-09-09T19:38:52;13.50;99.90
4279;DHT22;2153;47.744;10.580;2022-09-09T19:41:22;13.50;99.90
4279;DHT22;2153;47.744;10.580;2022-09-09T19:43:50;13.50;99.90
4279;DHT22;2153;47.744;10.580;2022-09-09T19:46:18;13.50;99.90
4279;DHT22;2153;47.744;10.580;2022-09-09T19:48:45;13.40;99.90
4279;DHT22;2153;47.744;10.580;2022-09-09T19:51:13;13.40;99.90
4279;DHT22;2153;47.744;10.580;2022-09-09T19:53:42;13.40;99.90
4279;DHT22;2153;47.744;10.580;2022-09-09T19:56:09;13.40;99.90
4279;DHT22;2153;47.744;10.580;2022-09-09T19:58:39;13.40;99.90
4279;DHT22;2153;47.744;10.580;2022-09-09T20:01:10;13.40;99.90
4279;DHT22;2153;47.744;10.580;2022-09-09T20:03:38;13.40;99.90
4279;DHT22;2153;47.744;10.580;2022-09-09T20:06:06;13.20;99.90
4279;DHT22;2153;47.744;10.580;2022-09-09T20:08:34;12.90;99.90
4279;DHT22;2153;47.744;10.580;2022-09-09T20:11:01;12.60;99.90
4279;DHT22;2153;47.744;10.580;2022-09-09T20:13:29;12.40;99.90
4279;DHT22;2153;47.744;10.580;2022-09-09T20:15:58;12.20;99.90
4279;DHT22;2153;47.744;10.580;2022-09-09T20:18:27;12.10;99.90
4279;DHT22;2153;47.744;10.580;2022-09-09T20:20:57;12.10;99.90
4279;DHT22;2153;47.744;10.580;2022-09-09T20:23:25;11.90;99.90
4279;DHT22;2153;47.744;10.580;2022-09-09T20:25:52;11.90;99.90
4279;DHT22;2153;47.744;10.580;2022-09-09T20:28:19;11.90;99.90
4279;DHT22;2153;47.744;10.580;2022-09-09T20:30:46;11.90;99.90
4279;DHT22;2153;47.744;10.580;2022-09-09T20:33:17;11.70;99.90
4279;DHT22;2153;47.744;10.580;2022-09-09T20:35:43;11.80;99.90
4279;DHT22;2153;47.744;10.580;2022-09-09T20:38:10;11.80;99.90
4279;DHT22;2153;47.744;10.580;2022-09-09T20:40:37;11.70;99.90
4279;DHT22;2153;47.744;10.580;2022-09-09T20:43:06;11.70;99.90
4279;DHT22;2153;47.744;10.580;2022-09-09T20:45:34;11.70;99.90
4279;DHT22;2153;47.744;10.580;2022-09-09T20:48:03;11.50;99.90
4279;DHT22;2153;47.744;10.580;2022-09-09T20:50:31;11.50;99.90
4279;DHT22;2153;47.744;10.580;2022-09-09T20:53:01;11.50;99.90
4279;DHT22;2153;47.744;10.580;2022-09-09T20:55:29;11.30;99.90
4279;DHT22;2153;47.744;10.580;2022-09-09T20:57:56;11.30;99.90
4279;DHT22;2153;47.744;10.580;2022-09-09T21:00:24;11.30;99.90
4279;DHT22;2153;47.744;10.580;2022-09-09T21:02:51;11.30;99.90
4279;DHT22;2153;47.744;10.580;2022-09-09T21:05:18;11.20;99.90
4279;DHT22;2153;47.744;10.580;2022-09-09T21:07:46;11.20;99.90
4279;DHT22;2153;47.744;10.580;2022-09-09T21:10:13;11.20;99.90
4279;DHT22;2153;47.744;10.580;2022-09-09T21:12:39;11.20;99.90
4279;DHT22;2153;47.744;10.580;2022-09-09T21:15:07;11.20;99.90
4279;DHT22;2153;47.744;10.580;2022-09-09T21:17:34;11.10;99.90